sensor_id;sensor_type;location;lat;lon;timestamp;P1;durP1;ratioP1;P2;durP2;ratioP2
22955;SDS011;40888;48.148;11.526;2023-10-08T00:00:22;5.88;;;3.47;;
22955;SDS011;40888;48.148;11.526;2023-10-08T00:03:07;5.47;;;3.35;;
22955;SDS011;40888;48.148;11.526;2023-10-08T00:05:36;5.45;;;3.42;;
22955;SDS011;40888;48.148;11.526;2023-10-08T00:08:02;6.38;;;3.40;;
22955;SDS011;40888;48.148;11.526;2023-10-08T00:10:36;4.75;;;2.95;;
22955;SDS011;40888;48.148;11.526;2023-10-08T00:13:05;6.05;;;2.90;;
22955;SDS011;40888;48.148;11.526;2023-10-08T00:15:35;4.00;;;2.78;;
22955;SDS011;40888;48.148;11.526;2023-10-08T00:18:04;4.95;;;3.42;;
22955;SDS011;40888;48.148;11.526;2023-10-08T00:20:34;4.75;;;3.20;;
22955;SDS011;40888;48.148;11.526;2023-10-08T00:23:11;4.57;;;3.65;;
22955;SDS011;40888;48.148;11.526;2023-10-08T00:25:37;7.40;;;3.40;;
22955;SDS011;40888;48.148;11.526;2023-10-08T00:28:08;4.53;;;2.80;;
22955;SDS011;40888;48.148;11.526;2023-10-08T00:30:41;4.50;;;2.90;;
22955;SDS011;40888;48.148;11.526;2023-10-08T00:33:08;6.38;;;3.22;;
22955;SDS011;40888;48.148;11.526;2023-10-08T00:35:38;6.50;;;3.88;;
22955;SDS011;40888;48.148;11.526;2023-10-08T00:38:06;6.60;;;3.20;;
22955;SDS011;40888;48.148;11.526;2023-10-08T00:40:39;4.57;;;3.15;;
22955;SDS011;40888;48.148;11.526;2023-10-08T00:43:05;6.60;;;3.25;;
22955;SDS011;40888;48.148;11.526;2023-10-08T00:45:38;6.57;;;3.58;;
22955;SDS011;40888;48.148;11.526;2023-10-08T00:48:09;3.58;;;2.70;;
22955;SDS011;40888;48.148;11.526;2023-10-08T00:50:42;4.72;;;3.05;;
22955;SDS011;40888;48.148;11.526;2023-10-08T00:53:11;4.75;;;3.45;;
22955;SDS011;40888;48.148;11.526;2023-10-08T00:55:48;5.50;;;3.22;;
22955;SDS011;40888;48.148;11.526;2023-10-08T00:58:25;6.07;;;2.90;;
22955;SDS011;40888;48.148;11.526;2023-10-08T01:00:52;7.00;;;3.00;;
22955;SDS011;40888;48.148;11.526;2023-10-08T01:03:25;6.25;;;3.22;;
22955;SDS011;40888;48.148;11.526;2023-10-08T01:05:53;3.63;;;2.92;;
22955;SDS011;40888;48.148;11.526;2023-10-08T01:08:19;5.70;;;3.08;;
22955;SDS011;40888;48.148;11.526;2023-10-08T01:11:16;6.03;;;3.10;;
22955;SDS011;40888;48.148;11.526;2023-10-08T01:13:42;5.13;;;3.03;;
22955;SDS011;40888;48.148;11.526;2023-10-08T01:16:09;5.07;;;2.90;;
22955;SDS011;40888;48.148;11.526;2023-10-08T01:18:36;5.90;;;3.00;;
22955;SDS011;40888;48.148;11.526;2023-10-08T01:21:05;3.88;;;2.40;;
22955;SDS011;40888;48.148;11.526;2023-10-08T01:23:36;7.72;;;2.90;;
22955;SDS011;40888;48.148;11.526;2023-10-08T01:26:03;5.65;;;3.00;;
22955;SDS011;40888;48.148;11.526;2023-10-08T01:28:36;4.53;;;2.60;;
22955;SDS011;40888;48.148;11.526;2023-10-08T01:31:02;3.80;;;2.60;;
22955;SDS011;40888;48.148;11.526;2023-10-08T01:33:32;4.85;;;2.90;;
22955;SDS011;40888;48.148;11.526;2023-10-08T01:36:03;4.75;;;2.58;;
22955;SDS011;40888;48.148;11.526;2023-10-08T01:38:30;4.20;;;2.72;;
22955;SDS011;40888;48.148;11.526;2023-10-08T01:40:58;5.88;;;3.03;;
22955;SDS011;40888;48.148;11.526;2023-10-08T01:43:30;6.07;;;3.00;;
22955;SDS011;40888;48.148;11.526;2023-10-08T01:45:57;6.40;;;2.85;;
22955;SDS011;40888;48.148;11.526;2023-10-08T01:48:23;8.73;;;4.00;;
22955;SDS011;40888;48.148;11.526;2023-10-08T01:51:02;6.45;;;3.03;;
22955;SDS011;40888;48.148;11.526;2023-10-08T01:53:37;4.85;;;2.70;;
22955;SDS011;40888;48.148;11.526;2023-10-08T01:56:06;6.78;;;2.92;;
22955;SDS011;40888;48.148;11.526;2023-10-08T01:58:35;5.18;;;2.85;;
22955;SDS011;40888;48.148;11.526;2023-10-08T02:01:02;6.03;;;3.15;;
22955;SDS011;40888;48.148;11.526;2023-10-08T02:03:37;5.55;;;3.25;;
22955;SDS011;40888;48.148;11.526;2023-10-08T02:06:03;5.55;;;2.72;;
22955;SDS011;40888;48.148;11.526;2023-10-08T02:08:31;5.78;;;2.70;;
22955;SDS011;40888;48.148;11.526;2023-10-08T02:10:57;8.10;;;2.97;;
22955;SDS011;40888;48.148;11.526;2023-10-08T02:13:24;5.43;;;3.03;;
22955;SDS011;40888;48.148;11.526;2023-10-08T02:15:51;5.82;;;2.85;;
22955;SDS011;40888;48.148;11.526;2023-10-08T02:18:18;7.43;;;2.80;;
22955;SDS011;40888;48.148;11.526;2023-10-08T02:20:44;6.47;;;2.92;;
22955;SDS011;40888;48.148;11.526;2023-10-08T02:23:11;4.22;;;3.13;;
22955;SDS011;40888;48.148;11.526;2023-10-08T02:25:37;6.00;;;2.72;;
22955;SDS011;40888;48.148;11.526;2023-10-08T02:28:05;5.13;;;2.53;;
22955;SDS011;40888;48.148;11.526;2023-10-08T02:30:34;6.35;;;3.10;;
22955;SDS011;40888;48.148;11.526;2023-10-08T02:33:01;7.10;;;2.70;;
22955;SDS011;40888;48.148;11.526;2023-10-08T02:35:27;5.18;;;2.65;;
22955;SDS011;40888;48.148;11.526;2023-10-08T02:37:53;4.85;;;2.85;;
22955;SDS011;40888;48.148;11.526;2023-10-08T02:40:20;8.32;;;2.85;;
22955;SDS011;40888;48.148;11.526;2023-10-08T02:42:52;5.50;;;3.40;;
22955;SDS011;40888;48.148;11.526;2023-10-08T02:45:27;5.53;;;2.78;;
22955;SDS011;40888;48.148;11.526;2023-10-08T02:47:53;5.35;;;3.10;;
22955;SDS011;40888;48.148;11.526;2023-10-08T02:50:20;7.28;;;2.72;;
22955;SDS011;40888;48.148;11.526;2023-10-08T02:52:50;5.72;;;3.00;;
22955;SDS011;40888;48.148;11.526;2023-10-08T02:55:17;4.00;;;2.60;;
22955;SDS011;40888;48.148;11.526;2023-10-08T02:58:01;4.38;;;2.45;;
22955;SDS011;40888;48.148;11.526;2023-10-08T03:00:28;5.35;;;3.10;;
22955;SDS011;40888;48.148;11.526;2023-10-08T03:03:00;4.90;;;3.60;;
22955;SDS011;40888;48.148;11.526;2023-10-08T03:05:27;5.15;;;3.17;;
22955;SDS011;40888;48.148;11.526;2023-10-08T03:07:56;4.18;;;2.85;;
22955;SDS011;40888;48.148;11.526;2023-10-08T03:10:23;5.07;;;2.90;;
22955;SDS011;40888;48.148;11.526;2023-10-08T03:12:57;7.60;;;2.67;;
22955;SDS011;40888;48.148;11.526;2023-10-08T03:15:29;4.75;;;2.55;;
22955;SDS011;40888;48.148;11.526;2023-10-08T03:18:02;4.78;;;2.92;;
22955;SDS011;40888;48.148;11.526;2023-10-08T03:20:38;5.20;;;2.95;;
22955;SDS011;40888;48.148;11.526;2023-10-08T03:23:14;6.55;;;2.88;;
22955;SDS011;40888;48.148;11.526;2023-10-08T03:26:03;5.43;;;3.03;;
22955;SDS011;40888;48.148;11.526;2023-10-08T03:28:36;5.47;;;2.85;;
22955;SDS011;40888;48.148;11.526;2023-10-08T03:31:03;4.30;;;2.55;;
22955;SDS011;40888;48.148;11.526;2023-10-08T03:33:40;5.07;;;2.85;;
22955;SDS011;40888;48.148;11.526;2023-10-08T03:36:08;7.85;;;2.88;;
22955;SDS011;40888;48.148;11.526;2023-10-08T03:38:49;5.18;;;2.78;;
22955;SDS011;40888;48.148;11.526;2023-10-08T03:41:24;4.80;;;2.67;;
22955;SDS011;40888;48.148;11.526;2023-10-08T03:43:52;4.28;;;2.92;;
22955;SDS011;40888;48.148;11.526;2023-10-08T03:46:31;6.40;;;2.67;;
22955;SDS011;40888;48.148;11.526;2023-10-08T03:49:04;6.32;;;2.92;;
22955;SDS011;40888;48.148;11.526;2023-10-08T03:51:53;7.25;;;2.60;;
22955;SDS011;40888;48.148;11.526;2023-10-08T03:54:22;6.68;;;3.38;;
22955;SDS011;40888;48.148;11.526;2023-10-08T03:56:55;3.90;;;2.60;;
22955;SDS011;40888;48.148;11.526;2023-10-08T03:59:21;4.78;;;2.55;;
22955;SDS011;40888;48.148;11.526;2023-10-08T04:01:57;5.68;;;2.70;;
22955;SDS011;40888;48.148;11.526;2023-10-08T04:04:33;6.07;;;2.70;;
22955;SDS011;40888;48.148;11.526;2023-10-08T04:07:19;7.97;;;2.83;;
22955;SDS011;40888;48.148;11.526;2023-10-08T04:09:58;7.82;;;3.08;;
22955;SDS011;40888;48.148;11.526;2023-10-08T04:12:50;12.02;;;3.63;;
22955;SDS011;40888;48.148;11.526;2023-10-08T04:15:18;12.43;;;3.90;;
22955;SDS011;40888;48.148;11.526;2023-10-08T04:17:44;5.40;;;2.85;;
22955;SDS011;40888;48.148;11.526;2023-10-08T04:20:16;6.95;;;2.78;;
22955;SDS011;40888;48.148;11.526;2023-10-08T04:22:58;4.53;;;2.33;;
22955;SDS011;40888;48.148;11.526;2023-10-08T04:25:27;8.57;;;3.13;;
22955;SDS011;40888;48.148;11.526;2023-10-08T04:27:54;7.03;;;2.85;;
22955;SDS011;40888;48.148;11.526;2023-10-08T04:30:24;6.07;;;2.60;;
22955;SDS011;40888;48.148;11.526;2023-10-08T04:32:58;7.40;;;2.50;;
22955;SDS011;40888;48.148;11.526;2023-10-08T04:35:24;11.20;;;3.10;;
22955;SDS011;40888;48.148;11.526;2023-10-08T04:37:52;7.97;;;3.05;;
22955;SDS011;40888;48.148;11.526;2023-10-08T04:40:18;6.53;;;2.75;;
22955;SDS011;40888;48.148;11.526;2023-10-08T04:42:48;5.78;;;2.63;;
22955;SDS011;40888;48.148;11.526;2023-10-08T04:45:15;5.13;;;2.80;;
22955;SDS011;40888;48.148;11.526;2023-10-08T04:47:44;7.00;;;2.92;;
22955;SDS011;40888;48.148;11.526;2023-10-08T04:50:14;9.93;;;3.17;;
22955;SDS011;40888;48.148;11.526;2023-10-08T04:52:43;5.00;;;2.67;;
22955;SDS011;40888;48.148;11.526;2023-10-08T04:55:24;6.50;;;2.80;;
22955;SDS011;40888;48.148;11.526;2023-10-08T04:57:54;7.78;;;3.03;;
22955;SDS011;40888;48.148;11.526;2023-10-08T05:00:21;6.97;;;3.25;;
22955;SDS011;40888;48.148;11.526;2023-10-08T05:03:06;7.18;;;2.65;;
22955;SDS011;40888;48.148;11.526;2023-10-08T05:05:42;5.90;;;2.80;;
22955;SDS011;40888;48.148;11.526;2023-10-08T05:08:31;8.45;;;3.35;;
22955;SDS011;40888;48.148;11.526;2023-10-08T05:11:20;6.13;;;2.60;;
22955;SDS011;40888;48.148;11.526;2023-10-08T05:13:50;3.58;;;2.55;;
22955;SDS011;40888;48.148;11.526;2023-10-08T05:16:41;7.97;;;3.10;;
22955;SDS011;40888;48.148;11.526;2023-10-08T05:19:26;6.15;;;2.67;;
22955;SDS011;40888;48.148;11.526;2023-10-08T05:22:16;6.95;;;2.90;;
22955;SDS011;40888;48.148;11.526;2023-10-08T05:24:54;6.47;;;3.05;;
22955;SDS011;40888;48.148;11.526;2023-10-08T05:27:39;7.20;;;4.15;;
22955;SDS011;40888;48.148;11.526;2023-10-08T05:30:15;8.00;;;2.83;;
22955;SDS011;40888;48.148;11.526;2023-10-08T05:32:50;5.85;;;2.63;;
22955;SDS011;40888;48.148;11.526;2023-10-08T05:35:45;7.82;;;3.20;;
22955;SDS011;40888;48.148;11.526;2023-10-08T05:38:16;6.60;;;3.60;;
22955;SDS011;40888;48.148;11.526;2023-10-08T05:40:49;12.43;;;3.92;;
22955;SDS011;40888;48.148;11.526;2023-10-08T05:43:25;6.70;;;3.40;;
22955;SDS011;40888;48.148;11.526;2023-10-08T05:48:55;6.30;;;3.33;;
22955;SDS011;40888;48.148;11.526;2023-10-08T05:51:31;6.10;;;3.20;;
22955;SDS011;40888;48.148;11.526;2023-10-08T05:54:29;9.02;;;3.45;;
22955;SDS011;40888;48.148;11.526;2023-10-08T05:56:56;5.32;;;3.03;;
22955;SDS011;40888;48.148;11.526;2023-10-08T05:59:44;6.45;;;3.10;;
22955;SDS011;40888;48.148;11.526;2023-10-08T06:02:20;5.38;;;2.92;;
22955;SDS011;40888;48.148;11.526;2023-10-08T06:04:56;6.15;;;3.08;;
22955;SDS011;40888;48.148;11.526;2023-10-08T06:07:38;7.90;;;3.03;;
22955;SDS011;40888;48.148;11.526;2023-10-08T06:10:14;5.10;;;3.22;;
22955;SDS011;40888;48.148;11.526;2023-10-08T06:13:08;6.28;;;2.92;;
22955;SDS011;40888;48.148;11.526;2023-10-08T06:15:37;5.10;;;2.80;;
22955;SDS011;40888;48.148;11.526;2023-10-08T06:18:25;7.50;;;3.08;;
22955;SDS011;40888;48.148;11.526;2023-10-08T06:20:54;5.85;;;3.00;;
22955;SDS011;40888;48.148;11.526;2023-10-08T06:23:21;6.05;;;3.20;;
22955;SDS011;40888;48.148;11.526;2023-10-08T06:25:52;5.95;;;2.83;;
22955;SDS011;40888;48.148;11.526;2023-10-08T06:28:42;5.10;;;3.80;;
22955;SDS011;40888;48.148;11.526;2023-10-08T06:31:09;5.85;;;3.88;;
22955;SDS011;40888;48.148;11.526;2023-10-08T06:33:42;6.75;;;4.35;;
22955;SDS011;40888;48.148;11.526;2023-10-08T06:36:09;6.05;;;3.80;;
22955;SDS011;40888;48.148;11.526;2023-10-08T06:38:44;6.97;;;4.10;;
22955;SDS011;40888;48.148;11.526;2023-10-08T06:41:13;5.20;;;3.55;;
22955;SDS011;40888;48.148;11.526;2023-10-08T06:43:43;6.25;;;3.58;;
22955;SDS011;40888;48.148;11.526;2023-10-08T06:46:13;5.78;;;3.60;;
22955;SDS011;40888;48.148;11.526;2023-10-08T06:48:40;7.18;;;3.80;;
22955;SDS011;40888;48.148;11.526;2023-10-08T06:51:11;6.35;;;3.72;;
22955;SDS011;40888;48.148;11.526;2023-10-08T06:53:43;6.50;;;3.80;;
22955;SDS011;40888;48.148;11.526;2023-10-08T06:56:12;6.97;;;3.88;;
22955;SDS011;40888;48.148;11.526;2023-10-08T06:58:40;7.78;;;3.90;;
22955;SDS011;40888;48.148;11.526;2023-10-08T07:01:13;6.45;;;3.72;;
22955;SDS011;40888;48.148;11.526;2023-10-08T07:03:46;6.03;;;3.60;;
22955;SDS011;40888;48.148;11.526;2023-10-08T07:06:14;6.65;;;3.13;;
22955;SDS011;40888;48.148;11.526;2023-10-08T07:08:51;7.35;;;3.22;;
22955;SDS011;40888;48.148;11.526;2023-10-08T07:11:21;6.05;;;3.40;;
22955;SDS011;40888;48.148;11.526;2023-10-08T07:13:48;6.75;;;3.85;;
22955;SDS011;40888;48.148;11.526;2023-10-08T07:16:15;8.32;;;2.95;;
22955;SDS011;40888;48.148;11.526;2023-10-08T07:18:43;6.88;;;3.45;;
22955;SDS011;40888;48.148;11.526;2023-10-08T07:21:20;5.63;;;2.97;;
22955;SDS011;40888;48.148;11.526;2023-10-08T07:23:57;6.05;;;2.88;;
22955;SDS011;40888;48.148;11.526;2023-10-08T07:26:25;8.25;;;3.03;;
22955;SDS011;40888;48.148;11.526;2023-10-08T07:29:01;5.13;;;3.15;;
22955;SDS011;40888;48.148;11.526;2023-10-08T07:31:33;7.30;;;3.55;;
22955;SDS011;40888;48.148;11.526;2023-10-08T07:34:01;7.25;;;3.00;;
22955;SDS011;40888;48.148;11.526;2023-10-08T07:36:46;5.40;;;3.15;;
22955;SDS011;40888;48.148;11.526;2023-10-08T07:39:13;6.93;;;3.85;;
22955;SDS011;40888;48.148;11.526;2023-10-08T07:41:50;6.72;;;3.20;;
22955;SDS011;40888;48.148;11.526;2023-10-08T07:44:16;9.95;;;3.10;;
22955;SDS011;40888;48.148;11.526;2023-10-08T07:46:52;10.48;;;3.40;;
22955;SDS011;40888;48.148;11.526;2023-10-08T07:49:24;9.23;;;3.47;;
22955;SDS011;40888;48.148;11.526;2023-10-08T07:51:55;10.60;;;3.63;;
22955;SDS011;40888;48.148;11.526;2023-10-08T07:54:24;11.15;;;3.67;;
22955;SDS011;40888;48.148;11.526;2023-10-08T07:56:55;6.72;;;2.85;;
22955;SDS011;40888;48.148;11.526;2023-10-08T07:59:37;6.70;;;3.03;;
22955;SDS011;40888;48.148;11.526;2023-10-08T08:02:07;5.70;;;3.22;;
22955;SDS011;40888;48.148;11.526;2023-10-08T08:04:42;6.32;;;3.05;;
22955;SDS011;40888;48.148;11.526;2023-10-08T08:07:10;8.32;;;3.00;;
22955;SDS011;40888;48.148;11.526;2023-10-08T08:09:48;7.03;;;2.67;;
22955;SDS011;40888;48.148;11.526;2023-10-08T08:12:17;11.82;;;3.50;;
22955;SDS011;40888;48.148;11.526;2023-10-08T08:14:45;6.28;;;3.22;;
22955;SDS011;40888;48.148;11.526;2023-10-08T08:17:11;9.82;;;3.20;;
22955;SDS011;40888;48.148;11.526;2023-10-08T08:19:41;8.10;;;3.47;;
22955;SDS011;40888;48.148;11.526;2023-10-08T08:22:07;6.75;;;3.33;;
22955;SDS011;40888;48.148;11.526;2023-10-08T08:24:33;9.48;;;3.25;;
22955;SDS011;40888;48.148;11.526;2023-10-08T08:27:02;8.02;;;3.20;;
22955;SDS011;40888;48.148;11.526;2023-10-08T08:29:36;6.70;;;2.92;;
22955;SDS011;40888;48.148;11.526;2023-10-08T08:32:12;7.30;;;3.33;;
22955;SDS011;40888;48.148;11.526;2023-10-08T08:34:43;6.30;;;2.45;;
22955;SDS011;40888;48.148;11.526;2023-10-08T08:37:11;6.32;;;3.35;;
22955;SDS011;40888;48.148;11.526;2023-10-08T08:39:38;7.32;;;3.08;;
22955;SDS011;40888;48.148;11.526;2023-10-08T08:42:04;10.45;;;3.78;;
22955;SDS011;40888;48.148;11.526;2023-10-08T08:44:31;9.68;;;3.15;;
22955;SDS011;40888;48.148;11.526;2023-10-08T08:47:00;12.07;;;3.63;;
22955;SDS011;40888;48.148;11.526;2023-10-08T08:49:32;7.45;;;3.17;;
22955;SDS011;40888;48.148;11.526;2023-10-08T08:51:59;8.25;;;3.55;;
22955;SDS011;40888;48.148;11.526;2023-10-08T08:54:29;4.75;;;2.70;;
22955;SDS011;40888;48.148;11.526;2023-10-08T08:57:01;10.98;;;3.80;;
22955;SDS011;40888;48.148;11.526;2023-10-08T08:59:29;5.05;;;3.40;;
22955;SDS011;40888;48.148;11.526;2023-10-08T09:01:56;13.43;;;3.00;;
22955;SDS011;40888;48.148;11.526;2023-10-08T09:04:27;14.65;;;3.67;;
22955;SDS011;40888;48.148;11.526;2023-10-08T09:06:54;11.10;;;3.90;;
22955;SDS011;40888;48.148;11.526;2023-10-08T09:09:21;13.23;;;4.28;;
22955;SDS011;40888;48.148;11.526;2023-10-08T09:11:50;9.93;;;4.13;;
22955;SDS011;40888;48.148;11.526;2023-10-08T09:14:23;13.30;;;3.78;;
22955;SDS011;40888;48.148;11.526;2023-10-08T09:16:50;9.55;;;3.83;;
22955;SDS011;40888;48.148;11.526;2023-10-08T09:19:16;8.63;;;3.58;;
22955;SDS011;40888;48.148;11.526;2023-10-08T09:22:06;12.10;;;3.28;;
22955;SDS011;40888;48.148;11.526;2023-10-08T09:24:32;11.82;;;3.72;;
22955;SDS011;40888;48.148;11.526;2023-10-08T09:27:02;10.70;;;3.33;;
22955;SDS011;40888;48.148;11.526;2023-10-08T09:29:28;10.02;;;3.15;;
22955;SDS011;40888;48.148;11.526;2023-10-08T09:31:58;8.15;;;3.78;;
22955;SDS011;40888;48.148;11.526;2023-10-08T09:34:31;11.90;;;3.58;;
22955;SDS011;40888;48.148;11.526;2023-10-08T09:36:57;8.68;;;2.95;;
22955;SDS011;40888;48.148;11.526;2023-10-08T09:39:25;7.05;;;2.65;;
22955;SDS011;40888;48.148;11.526;2023-10-08T09:41:56;9.25;;;3.22;;
22955;SDS011;40888;48.148;11.526;2023-10-08T09:44:23;10.65;;;4.10;;
22955;SDS011;40888;48.148;11.526;2023-10-08T09:46:53;9.85;;;3.92;;
22955;SDS011;40888;48.148;11.526;2023-10-08T09:49:24;7.50;;;3.05;;
22955;SDS011;40888;48.148;11.526;2023-10-08T09:51:50;6.70;;;3.10;;
22955;SDS011;40888;48.148;11.526;2023-10-08T09:54:29;11.50;;;3.40;;
22955;SDS011;40888;48.148;11.526;2023-10-08T09:57:03;11.27;;;3.72;;
22955;SDS011;40888;48.148;11.526;2023-10-08T09:59:32;10.48;;;3.75;;
22955;SDS011;40888;48.148;11.526;2023-10-08T10:01:58;10.52;;;3.45;;
22955;SDS011;40888;48.148;11.526;2023-10-08T10:04:26;14.43;;;3.83;;
22955;SDS011;40888;48.148;11.526;2023-10-08T10:06:56;9.50;;;3.00;;
22955;SDS011;40888;48.148;11.526;2023-10-08T10:09:26;10.20;;;3.83;;
22955;SDS011;40888;48.148;11.526;2023-10-08T10:11:53;8.07;;;4.00;;
22955;SDS011;40888;48.148;11.526;2023-10-08T10:14:23;15.65;;;4.22;;
22955;SDS011;40888;48.148;11.526;2023-10-08T10:19:37;21.20;;;4.10;;
22955;SDS011;40888;48.148;11.526;2023-10-08T10:22:03;10.95;;;3.75;;
22955;SDS011;40888;48.148;11.526;2023-10-08T10:24:35;13.13;;;3.63;;
22955;SDS011;40888;48.148;11.526;2023-10-08T10:27:11;11.45;;;3.05;;
22955;SDS011;40888;48.148;11.526;2023-10-08T10:29:37;10.38;;;3.20;;
22955;SDS011;40888;48.148;11.526;2023-10-08T10:32:04;11.73;;;3.92;;
22955;SDS011;40888;48.148;11.526;2023-10-08T10:34:30;10.02;;;3.83;;
22955;SDS011;40888;48.148;11.526;2023-10-08T10:37:00;8.02;;;3.30;;
22955;SDS011;40888;48.148;11.526;2023-10-08T10:39:54;8.00;;;3.20;;
22955;SDS011;40888;48.148;11.526;2023-10-08T10:42:23;10.88;;;3.40;;
22955;SDS011;40888;48.148;11.526;2023-10-08T10:44:52;13.55;;;3.60;;
22955;SDS011;40888;48.148;11.526;2023-10-08T10:47:23;12.98;;;4.10;;
22955;SDS011;40888;48.148;11.526;2023-10-08T10:49:53;9.07;;;3.25;;
22955;SDS011;40888;48.148;11.526;2023-10-08T10:52:32;9.95;;;3.53;;
22955;SDS011;40888;48.148;11.526;2023-10-08T10:55:10;9.90;;;3.20;;
22955;SDS011;40888;48.148;11.526;2023-10-08T10:57:42;9.52;;;3.47;;
22955;SDS011;40888;48.148;11.526;2023-10-08T11:00:09;8.75;;;3.28;;
22955;SDS011;40888;48.148;11.526;2023-10-08T11:03:04;6.78;;;3.30;;
22955;SDS011;40888;48.148;11.526;2023-10-08T11:05:49;11.60;;;4.00;;
22955;SDS011;40888;48.148;11.526;2023-10-08T11:08:16;10.00;;;3.30;;
22955;SDS011;40888;48.148;11.526;2023-10-08T11:10:43;11.65;;;3.05;;
22955;SDS011;40888;48.148;11.526;2023-10-08T11:13:17;10.10;;;3.38;;
22955;SDS011;40888;48.148;11.526;2023-10-08T11:15:45;12.10;;;3.65;;
22955;SDS011;40888;48.148;11.526;2023-10-08T11:18:18;9.00;;;3.75;;
22955;SDS011;40888;48.148;11.526;2023-10-08T11:20:44;8.55;;;3.60;;
22955;SDS011;40888;48.148;11.526;2023-10-08T11:23:11;8.27;;;3.35;;
22955;SDS011;40888;48.148;11.526;2023-10-08T11:25:56;11.02;;;3.50;;
22955;SDS011;40888;48.148;11.526;2023-10-08T11:28:27;9.60;;;4.00;;
22955;SDS011;40888;48.148;11.526;2023-10-08T11:30:53;10.25;;;2.95;;
22955;SDS011;40888;48.148;11.526;2023-10-08T11:33:19;12.63;;;3.25;;
22955;SDS011;40888;48.148;11.526;2023-10-08T11:35:58;10.63;;;3.90;;
22955;SDS011;40888;48.148;11.526;2023-10-08T11:38:24;10.15;;;3.70;;
22955;SDS011;40888;48.148;11.526;2023-10-08T11:40:52;10.75;;;3.83;;
22955;SDS011;40888;48.148;11.526;2023-10-08T11:43:22;10.27;;;3.75;;
22955;SDS011;40888;48.148;11.526;2023-10-08T11:45:48;14.40;;;4.18;;
22955;SDS011;40888;48.148;11.526;2023-10-08T11:48:14;12.45;;;3.58;;
22955;SDS011;40888;48.148;11.526;2023-10-08T11:50:47;12.57;;;4.07;;
22955;SDS011;40888;48.148;11.526;2023-10-08T11:53:15;8.70;;;3.42;;
22955;SDS011;40888;48.148;11.526;2023-10-08T11:55:44;11.60;;;3.47;;
22955;SDS011;40888;48.148;11.526;2023-10-08T11:58:13;12.75;;;3.70;;
22955;SDS011;40888;48.148;11.526;2023-10-08T12:00:43;8.70;;;3.50;;
22955;SDS011;40888;48.148;11.526;2023-10-08T12:03:13;17.38;;;3.55;;
22955;SDS011;40888;48.148;11.526;2023-10-08T12:05:43;8.70;;;3.30;;
22955;SDS011;40888;48.148;11.526;2023-10-08T12:08:16;9.85;;;3.42;;
22955;SDS011;40888;48.148;11.526;2023-10-08T12:10:45;9.55;;;3.50;;
22955;SDS011;40888;48.148;11.526;2023-10-08T12:13:13;15.40;;;4.20;;
22955;SDS011;40888;48.148;11.526;2023-10-08T12:15:41;10.05;;;3.95;;
22955;SDS011;40888;48.148;11.526;2023-10-08T12:18:09;9.60;;;3.50;;
22955;SDS011;40888;48.148;11.526;2023-10-08T12:20:51;12.75;;;3.63;;
22955;SDS011;40888;48.148;11.526;2023-10-08T12:23:19;9.90;;;4.13;;
22955;SDS011;40888;48.148;11.526;2023-10-08T12:25:51;11.38;;;3.53;;
22955;SDS011;40888;48.148;11.526;2023-10-08T12:28:18;10.73;;;3.83;;
22955;SDS011;40888;48.148;11.526;2023-10-08T12:30:44;10.52;;;3.42;;
22955;SDS011;40888;48.148;11.526;2023-10-08T12:33:11;9.57;;;3.70;;
22955;SDS011;40888;48.148;11.526;2023-10-08T12:35:44;10.32;;;3.53;;
22955;SDS011;40888;48.148;11.526;2023-10-08T12:38:10;11.02;;;3.38;;
22955;SDS011;40888;48.148;11.526;2023-10-08T12:40:36;12.38;;;4.72;;
22955;SDS011;40888;48.148;11.526;2023-10-08T12:43:21;9.95;;;3.75;;
22955;SDS011;40888;48.148;11.526;2023-10-08T12:45:48;10.25;;;3.45;;
22955;SDS011;40888;48.148;11.526;2023-10-08T12:48:26;12.55;;;3.70;;
22955;SDS011;40888;48.148;11.526;2023-10-08T12:50:53;15.25;;;3.50;;
22955;SDS011;40888;48.148;11.526;2023-10-08T12:53:28;9.05;;;2.95;;
22955;SDS011;40888;48.148;11.526;2023-10-08T12:56:07;13.63;;;4.07;;
22955;SDS011;40888;48.148;11.526;2023-10-08T12:58:40;12.02;;;4.35;;
22955;SDS011;40888;48.148;11.526;2023-10-08T13:01:15;10.43;;;3.75;;
22955;SDS011;40888;48.148;11.526;2023-10-08T13:03:45;8.27;;;2.92;;
22955;SDS011;40888;48.148;11.526;2023-10-08T13:06:15;7.40;;;3.17;;
22955;SDS011;40888;48.148;11.526;2023-10-08T13:08:53;15.48;;;3.50;;
22955;SDS011;40888;48.148;11.526;2023-10-08T13:11:20;13.30;;;3.85;;
22955;SDS011;40888;48.148;11.526;2023-10-08T13:13:52;8.50;;;3.38;;
22955;SDS011;40888;48.148;11.526;2023-10-08T13:16:19;14.50;;;3.33;;
22955;SDS011;40888;48.148;11.526;2023-10-08T13:18:48;13.75;;;3.33;;
22955;SDS011;40888;48.148;11.526;2023-10-08T13:21:14;5.25;;;3.00;;
22955;SDS011;40888;48.148;11.526;2023-10-08T13:23:40;10.63;;;3.33;;
22955;SDS011;40888;48.148;11.526;2023-10-08T13:26:06;11.88;;;3.42;;
22955;SDS011;40888;48.148;11.526;2023-10-08T13:28:33;10.40;;;3.58;;
22955;SDS011;40888;48.148;11.526;2023-10-08T13:33:35;9.55;;;3.50;;
22955;SDS011;40888;48.148;11.526;2023-10-08T13:36:04;9.82;;;3.45;;
22955;SDS011;40888;48.148;11.526;2023-10-08T13:38:33;17.30;;;3.70;;
22955;SDS011;40888;48.148;11.526;2023-10-08T13:40:59;10.23;;;3.78;;
22955;SDS011;40888;48.148;11.526;2023-10-08T13:43:28;12.32;;;3.95;;
22955;SDS011;40888;48.148;11.526;2023-10-08T13:46:05;15.23;;;4.07;;
22955;SDS011;40888;48.148;11.526;2023-10-08T13:48:33;9.73;;;3.17;;
22955;SDS011;40888;48.148;11.526;2023-10-08T13:51:03;9.07;;;3.40;;
22955;SDS011;40888;48.148;11.526;2023-10-08T13:53:30;16.85;;;4.10;;
22955;SDS011;40888;48.148;11.526;2023-10-08T13:55:57;14.68;;;3.22;;
22955;SDS011;40888;48.148;11.526;2023-10-08T13:58:25;14.07;;;3.65;;
22955;SDS011;40888;48.148;11.526;2023-10-08T14:00:54;12.38;;;3.80;;
22955;SDS011;40888;48.148;11.526;2023-10-08T14:03:20;15.95;;;3.55;;
22955;SDS011;40888;48.148;11.526;2023-10-08T14:05:47;10.98;;;3.75;;
22955;SDS011;40888;48.148;11.526;2023-10-08T14:08:18;13.57;;;3.17;;
22955;SDS011;40888;48.148;11.526;2023-10-08T14:10:45;13.55;;;3.95;;
22955;SDS011;40888;48.148;11.526;2023-10-08T14:13:13;12.63;;;3.10;;
22955;SDS011;40888;48.148;11.526;2023-10-08T14:15:45;16.30;;;4.63;;
22955;SDS011;40888;48.148;11.526;2023-10-08T14:18:13;11.65;;;3.58;;
22955;SDS011;40888;48.148;11.526;2023-10-08T14:20:42;16.65;;;4.18;;
22955;SDS011;40888;48.148;11.526;2023-10-08T14:23:13;14.93;;;3.20;;
22955;SDS011;40888;48.148;11.526;2023-10-08T14:25:41;9.60;;;3.67;;
22955;SDS011;40888;48.148;11.526;2023-10-08T14:28:10;7.95;;;3.20;;
22955;SDS011;40888;48.148;11.526;2023-10-08T14:30:47;13.23;;;3.42;;
22955;SDS011;40888;48.148;11.526;2023-10-08T14:33:18;13.05;;;3.47;;
22955;SDS011;40888;48.148;11.526;2023-10-08T14:35:49;12.90;;;3.85;;
22955;SDS011;40888;48.148;11.526;2023-10-08T14:38:34;8.13;;;3.53;;
22955;SDS011;40888;48.148;11.526;2023-10-08T14:41:19;12.52;;;4.55;;
22955;SDS011;40888;48.148;11.526;2023-10-08T14:44:04;12.32;;;3.58;;
22955;SDS011;40888;48.148;11.526;2023-10-08T14:46:31;13.93;;;5.38;;
22955;SDS011;40888;48.148;11.526;2023-10-08T14:48:59;17.73;;;4.97;;
22955;SDS011;40888;48.148;11.526;2023-10-08T14:51:27;10.30;;;4.47;;
22955;SDS011;40888;48.148;11.526;2023-10-08T14:53:55;18.50;;;4.30;;
22955;SDS011;40888;48.148;11.526;2023-10-08T14:56:21;13.40;;;4.55;;
22955;SDS011;40888;48.148;11.526;2023-10-08T14:58:48;9.02;;;3.70;;
22955;SDS011;40888;48.148;11.526;2023-10-08T15:01:14;15.90;;;3.67;;
22955;SDS011;40888;48.148;11.526;2023-10-08T15:03:40;15.38;;;3.70;;